Elger Bay, Washington
Current Conditions -  °F | °C
As of 6:15 AM on Thursday 23 Oct 2014 (Local Time) from KAWO Reporting Station
Broken Clouds Broken Clouds  
Wind Chill: 52°   Ceiling: 6000
Heat Index: 52°   Visibility: 9mi
Dew Point: 46°   Wind: 10mph
Humidity: 82%   Direction: 160°SSE
Pressure: 29.72"   Gusts: NA
Location:  48.2145°N, 122.297°W
Report Text: KAWO 231315Z AUTO 16009KT 9SM FEW042 SCT049 BKN060 11/08 A2972 RMK AO1 P0001
Loading
Personal Weather Stations






























Interactive Weather Map
Tropical Storm Tracking
New forecast layout! Learn more

10-Day Weather Forecast

Advertisements
Track Severe Weather on mobile